ADDS METAR Data INFO
IDs: Format: Raw Decoded Include TAF

Data at: 1935 UTC 17 Jul 2018

METAR for:KCVG (Cincinnati Intl, KY, US)
Text:KCVG 171852Z 33013G19KT 10SM FEW070 FEW300 31/12 A3000 RMK AO2 SLP146 T03110117
Temperature: 31.1°C ( 88°F)
Dewpoint: 11.7°C ( 53°F) [RH = 30%]
Pressure (altimeter):30.00 inches Hg (1016.0 mb) [Sea level pressure: 1014.6 mb]
Winds:from the NNW (330 degrees) at 15 MPH (13 knots; 6.7 m/s) gusting to 22 MPH (19 knots; 9.8 m/s)
Visibility:10 or more sm (16+ km)
Ceiling:at least 12,000 feet AGL
Clouds: few clouds at 7000 feet AGL, few clouds at 30000 feet AGL